Lord Nelson — GHJV — position and weather

sailwx.info

Track history (hours):
 
Tides and Currents Weather Stations Pressure Air Temp Water Temp Dewpoint Dewpoint Depression Visibility Wind Speed Wind Dir Waves Ship Positions

Lord Nelson (United Kingdom)

Ship's website: http://www.jst.org.uk/

Last reported at 2016-Jul-28 04:12 UTC. Time now 2016-Jul-29 12:09 UTC.
Position N 36°33' W 006°24'.

Length 54.7 m; beam 9 m; draft 4.1 m.

Type: Sailing vessel. MMSI: 232003690.

Date/timePositionNaut miles runAvg speedWind from/ knotsBaromVisibWave heightAir tempDewpointWater temp
2016-Jul-28 04:12N 36°33' W 006°24'6 2.2
2016-Jul-28 01:33N 36°33' W 006°31'5 4.1
2016-Jul-28 00:26N 36°32' W 006°37'6 2.7
2016-Jul-27 22:13N 36°31' W 006°44'3 3.1
2016-Jul-27 21:13N 36°31' W 006°48'2 3.5
2016-Jul-27 20:31N 36°31' W 006°51'3 3.2
2016-Jul-27 19:33N 36°31' W 006°55'25 1.7
2016-Jul-27 05:18N 36°31' W 007°25'2 1.9
2016-Jul-27 04:29N 36°31' W 007°27'7 3.4
2016-Jul-27 02:22N 36°31' W 007°36'5 4.4
2016-Jul-27 01:11N 36°31' W 007°43'3 5.0
2016-Jul-27 00:32N 36°31' W 007°47'5 5.0
2016-Jul-26 23:32N 36°32' W 007°53'5 5.1
2016-Jul-26 22:33N 36°34' W 007°58'6 6.2
2016-Jul-26 21:33N 36°37' W 008°05'6 6.3
2016-Jul-26 20:33N 36°39' W 008°13'7 6.6
2016-Jul-26 19:33N 36°42' W 008°20'7 6.6
2016-Jul-26 18:33N 36°44' W 008°28'6 6.2
2016-Jul-26 17:33N 36°47' W 008°35'6 6.2
2016-Jul-26 16:33N 36°49' W 008°42'6 6.4
2016-Jul-26 15:33N 36°52' W 008°49'6 5.6
2016-Jul-26 14:33N 36°55' W 008°55'7 6.9
2016-Jul-26 13:33N 36°57' W 009°03'7 6.4
2016-Jul-26 12:31N 37°03' W 009°08'5 5.4
2016-Jul-26 11:31N 37°07' W 009°12'6 5.7
2016-Jul-26 10:32N 37°12' W 009°15'5 5.3
2016-Jul-26 09:33N 37°17' W 009°17'5 5.3
2016-Jul-26 08:33N 37°22' W 009°21'5 5.1
2016-Jul-26 07:33N 37°27' W 009°21'5 5.2
2016-Jul-26 06:33N 37°32' W 009°22'4 3.7
2016-Jul-26 05:33N 37°36' W 009°22'3 3.4
2016-Jul-26 04:33N 37°39' W 009°22'4 3.9
2016-Jul-26 03:33N 37°43' W 009°22'4 4.0
2016-Jul-26 02:34N 37°47' W 009°23'9 4.3
2016-Jul-26 00:33N 37°55' W 009°23'6 5.7
2016-Jul-25 23:33N 38°01' W 009°23'6 5.5
2016-Jul-25 22:34N 38°07' W 009°24'6 5.7
2016-Jul-25 21:33N 38°12' W 009°24'6 6.2
2016-Jul-25 20:33N 38°18' W 009°26'7 7.2
2016-Jul-25 19:33N 38°26' W 009°27'7 7.1
2016-Jul-25 18:33N 38°33' W 009°27'6 6.2
2016-Jul-25 17:33N 38°38' W 009°24'3 3.2
2016-Jul-25 16:33N 38°39' W 009°20'4 4.1
2016-Jul-25 15:33N 38°41' W 009°16'5 4.5
2016-Jul-25 14:32N 38°42' W 009°10'3 2.9
2016-Jul-25 13:29N 38°42' W 009°06'1 0.6
2016-Jul-25 12:33N 38°43' W 009°06'1 0.5
2016-Jul-25 11:34N 38°43' W 009°07'0 0.0
2016-Jul-25 10:27N 38°43' W 009°07'0 0.0
2016-Jul-25 09:30N 38°43' W 009°07'0 0.0
2016-Jul-25 08:33N 38°43' W 009°07'0 0.0
2016-Jul-25 07:21N 38°43' W 009°07'0 0.0
2016-Jul-25 06:30N 38°43' W 009°07'0 0.0
2016-Jul-25 04:33N 38°43' W 009°07'0 0.0
2016-Jul-25 03:33N 38°43' W 009°07'0 0.0
2016-Jul-25 02:33N 38°43' W 009°07'0 0.0
2016-Jul-25 01:33N 38°43' W 009°07'0 0.0
2016-Jul-25 00:33N 38°43' W 009°07'0 0.0
2016-Jul-24 23:33N 38°43' W 009°07'0 0.0
2016-Jul-24 22:30N 38°43' W 009°07'0 0.0
2016-Jul-24 21:33N 38°43' W 009°07'0 0.0
2016-Jul-24 20:33N 38°43' W 009°07'0 0.0
2016-Jul-24 19:33N 38°43' W 009°07'0 0.0
2016-Jul-24 18:30N 38°43' W 009°07'0 0.0
2016-Jul-24 17:33N 38°43' W 009°07'0 0.0
2016-Jul-24 16:30N 38°43' W 009°07'0 0.0
2016-Jul-24 15:33N 38°43' W 009°07'0 0.0
2016-Jul-24 14:33N 38°43' W 009°07'0 0.0
2016-Jul-24 13:33N 38°43' W 009°07'0 0.0
2016-Jul-24 12:33N 38°43' W 009°07'0 0.0
2016-Jul-24 11:27N 38°43' W 009°07'0 0.0
2016-Jul-24 10:27N 38°43' W 009°07'0 0.0
2016-Jul-24 09:33N 38°43' W 009°07'0 0.0
2016-Jul-24 08:30N 38°43' W 009°07'0 0.0
2016-Jul-24 07:33N 38°43' W 009°07'0 0.0
2016-Jul-24 06:33N 38°43' W 009°07'0 0.0
2016-Jul-24 05:33N 38°43' W 009°07'0 0.0
2016-Jul-24 04:33N 38°43' W 009°07'0 0.0
2016-Jul-24 03:33N 38°43' W 009°07'0 0.0
2016-Jul-24 02:32N 38°43' W 009°07'0 0.0
2016-Jul-24 01:32N 38°43' W 009°07'0 0.0
2016-Jul-24 00:32N 38°43' W 009°07'0 0.0
2016-Jul-23 23:29N 38°43' W 009°07'0 0.0
2016-Jul-23 22:32N 38°43' W 009°07'0 0.0
2016-Jul-23 21:32N 38°43' W 009°07'0 0.0
2016-Jul-23 20:32N 38°43' W 009°07'0 0.0
2016-Jul-23 19:32N 38°43' W 009°07'0 0.0
2016-Jul-23 18:32N 38°43' W 009°07'0 0.0
2016-Jul-23 17:32N 38°43' W 009°07'0 0.0
2016-Jul-23 16:32N 38°43' W 009°07'0 0.0
2016-Jul-23 15:32N 38°43' W 009°07'0 0.0
2016-Jul-23 14:32N 38°43' W 009°07'0 0.0
2016-Jul-23 13:29N 38°43' W 009°07'0 0.0
2016-Jul-23 12:29N 38°43' W 009°07'0 0.0
2016-Jul-23 11:32N 38°43' W 009°07'0 0.0
2016-Jul-23 10:32N 38°43' W 009°07'0 0.0
2016-Jul-23 09:29N 38°43' W 009°07'0 0.0
2016-Jul-23 08:32N 38°43' W 009°07'0 0.0
2016-Jul-23 07:32N 38°43' W 009°07'0 0.0
2016-Jul-23 06:29N 38°43' W 009°07'0 0.0
2016-Jul-23 04:32N 38°43' W 009°07'0 0.0
2016-Jul-23 03:32N 38°43' W 009°07'0 0.0
2016-Jul-23 02:32N 38°43' W 009°07'0 0.0
2016-Jul-23 01:32N 38°43' W 009°07'0 0.0
2016-Jul-23 00:32N 38°43' W 009°07'0 0.0
2016-Jul-22 23:32N 38°43' W 009°07'0 0.0
2016-Jul-22 22:32N 38°43' W 009°07'0 0.0
2016-Jul-22 21:32N 38°43' W 009°07'0 0.0
2016-Jul-22 20:23N 38°43' W 009°07'0 0.0
2016-Jul-22 19:32N 38°43' W 009°07'0 0.0
2016-Jul-22 18:28N 38°43' W 009°07'0 0.0
2016-Jul-22 17:31N 38°43' W 009°07'0 0.0
2016-Jul-22 16:31N 38°43' W 009°07'0 0.0
2016-Jul-22 15:25N 38°43' W 009°07'0 0.0
2016-Jul-22 14:31N 38°43' W 009°07'0 0.0
2016-Jul-22 13:31N 38°43' W 009°07'0 0.0
2016-Jul-22 12:28N 38°43' W 009°07'0 0.0
2016-Jul-22 11:28N 38°43' W 009°07'0 0.0
2016-Jul-22 10:31N 38°43' W 009°07'0 0.0
2016-Jul-22 09:31N 38°43' W 009°07'0 0.0
2016-Jul-22 08:25N 38°43' W 009°07'0 0.0
2016-Jul-22 07:22N 38°43' W 009°07'0 0.0
2016-Jul-22 04:31N 38°43' W 009°07'0 0.0
2016-Jul-22 02:25N 38°43' W 009°07'0 0.0
2016-Jul-22 01:25N 38°43' W 009°07'0 0.0
2016-Jul-22 00:25N 38°43' W 009°07'0 0.0
2016-Jul-21 23:31N 38°43' W 009°07'0 0.0
2016-Jul-21 22:28N 38°43' W 009°07'0 0.0
2016-Jul-21 21:31N 38°43' W 009°07'0 0.0
2016-Jul-21 20:31N 38°43' W 009°07'0 0.4
2016-Jul-21 19:33N 38°43' W 009°07'4 3.6
2016-Jul-21 18:33N 38°41' W 009°12'5 4.5
2016-Jul-21 17:33N 38°41' W 009°17'5 5.4
2016-Jul-21 16:33N 38°41' W 009°24'0 0.0
2016-Jul-21 15:32N 38°41' W 009°24'0 0.0
2016-Jul-21 14:28N 38°41' W 009°24'0 0.0
2016-Jul-21 13:31N 38°41' W 009°24'0 0.0
2016-Jul-21 11:13N 38°41' W 009°24'0 0.0
2016-Jul-21 10:31N 38°41' W 009°24'0 0.0
2016-Jul-21 09:28N 38°41' W 009°24'0 0.0
2016-Jul-21 08:31N 38°41' W 009°24'0 0.0
2016-Jul-21 07:28N 38°41' W 009°24'0 0.0
2016-Jul-21 06:31N 38°41' W 009°24'0 0.0
2016-Jul-21 05:28N 38°41' W 009°24'0 0.0
2016-Jul-21 04:28N 38°41' W 009°24'0 0.0
2016-Jul-21 03:28N 38°41' W 009°24'0 0.1
2016-Jul-21 02:28N 38°41' W 009°24'0 0.0
2016-Jul-21 01:28N 38°41' W 009°24'0 0.0
2016-Jul-21 00:28N 38°41' W 009°24'0 0.0
2016-Jul-20 23:28N 38°41' W 009°24'0 0.0
2016-Jul-20 22:28N 38°41' W 009°24'0 0.0
2016-Jul-20 21:28N 38°41' W 009°24'0 0.0
2016-Jul-20 20:22N 38°41' W 009°24'0 0.0
2016-Jul-20 19:28N 38°41' W 009°24'0 0.0
2016-Jul-20 18:31N 38°41' W 009°24'0 0.0
2016-Jul-20 17:31N 38°41' W 009°24'2 1.8
2016-Jul-20 16:34N 38°41' W 009°26'7 7.0
2016-Jul-20 15:33N 38°45' W 009°33'7 7.4
2016-Jul-20 14:33N 38°53' W 009°33'7 7.4
2016-Jul-20 13:33N 38°60' W 009°36'4 3.6
2016-Jul-20 12:33N 39°03' W 009°38'5 3.7
2016-Jul-20 11:16N 39°07' W 009°41'414.3
2016-Jul-20 11:00N 39°06' W 009°36'614.2 040 / 101020.3 5.4 0.521.018.319.3
2016-Jul-20 10:33N 39°09' W 009°43'4 3.5
2016-Jul-20 09:33N 39°12' W 009°45'5615.7
2016-Jul-20 06:00N 39°30' W 010°54'76 7.6 340 / 91017.5 5.4 19.017.518.0
2016-Jul-19 20:00N 40°36' W 010°06'85 6.1 230 / 51016.6 5.4 0.521.018.121.8
2016-Jul-19 06:00N 42°00' W 010°24'25 8.4 220 / 31015.1 5.4 0.519.116.321.0
2016-Jul-19 03:00N 42°18' W 010°00'102 4.7 1013.4 5.4 19.116.618.9
2016-Jul-18 05:00N 44°00' W 010°12'   070 / 91014.3 2.2 0.518.918.318.9
Track history (hours):
 
Tides and Currents Weather Stations Pressure Air Temp Water Temp Dewpoint Dewpoint Depression Visibility Wind Speed Wind Dir Waves Ship Positions

Lord Nelson (United Kingdom)

Ship's website: http://www.jst.org.uk/

Last reported at 2016-Jul-28 04:12 UTC. Time now 2016-Jul-29 12:09 UTC.
Position N 36°33' W 006°24'.

Length 54.7 m; beam 9 m; draft 4.1 m.

Type: Sailing vessel. MMSI: 232003690.

Date/timePositionNaut miles runAvg speedWind from/ knotsBaromVisibWave heightAir tempDewpointWater temp
2016-Jul-28 04:12N 36°33' W 006°24'6 2.2
2016-Jul-28 01:33N 36°33' W 006°31'5 4.1
2016-Jul-28 00:26N 36°32' W 006°37'6 2.7
2016-Jul-27 22:13N 36°31' W 006°44'3 3.1
2016-Jul-27 21:13N 36°31' W 006°48'2 3.5
2016-Jul-27 20:31N 36°31' W 006°51'3 3.2
2016-Jul-27 19:33N 36°31' W 006°55'25 1.7
2016-Jul-27 05:18N 36°31' W 007°25'2 1.9
2016-Jul-27 04:29N 36°31' W 007°27'7 3.4
2016-Jul-27 02:22N 36°31' W 007°36'5 4.4
2016-Jul-27 01:11N 36°31' W 007°43'3 5.0
2016-Jul-27 00:32N 36°31' W 007°47'5 5.0
2016-Jul-26 23:32N 36°32' W 007°53'5 5.1
2016-Jul-26 22:33N 36°34' W 007°58'6 6.2
2016-Jul-26 21:33N 36°37' W 008°05'6 6.3
2016-Jul-26 20:33N 36°39' W 008°13'7 6.6
2016-Jul-26 19:33N 36°42' W 008°20'7 6.6
2016-Jul-26 18:33N 36°44' W 008°28'6 6.2
2016-Jul-26 17:33N 36°47' W 008°35'6 6.2
2016-Jul-26 16:33N 36°49' W 008°42'6 6.4
2016-Jul-26 15:33N 36°52' W 008°49'6 5.6
2016-Jul-26 14:33N 36°55' W 008°55'7 6.9
2016-Jul-26 13:33N 36°57' W 009°03'7 6.4
2016-Jul-26 12:31N 37°03' W 009°08'5 5.4
2016-Jul-26 11:31N 37°07' W 009°12'6 5.7
2016-Jul-26 10:32N 37°12' W 009°15'5 5.3
2016-Jul-26 09:33N 37°17' W 009°17'5 5.3
2016-Jul-26 08:33N 37°22' W 009°21'5 5.1
2016-Jul-26 07:33N 37°27' W 009°21'5 5.2
2016-Jul-26 06:33N 37°32' W 009°22'4 3.7
2016-Jul-26 05:33N 37°36' W 009°22'3 3.4
2016-Jul-26 04:33N 37°39' W 009°22'4 3.9
2016-Jul-26 03:33N 37°43' W 009°22'4 4.0
2016-Jul-26 02:34N 37°47' W 009°23'9 4.3
2016-Jul-26 00:33N 37°55' W 009°23'6 5.7
2016-Jul-25 23:33N 38°01' W 009°23'6 5.5
2016-Jul-25 22:34N 38°07' W 009°24'6 5.7
2016-Jul-25 21:33N 38°12' W 009°24'6 6.2
2016-Jul-25 20:33N 38°18' W 009°26'7 7.2
2016-Jul-25 19:33N 38°26' W 009°27'7 7.1
2016-Jul-25 18:33N 38°33' W 009°27'6 6.2
2016-Jul-25 17:33N 38°38' W 009°24'3 3.2
2016-Jul-25 16:33N 38°39' W 009°20'4 4.1
2016-Jul-25 15:33N 38°41' W 009°16'5 4.5
2016-Jul-25 14:32N 38°42' W 009°10'3 2.9
2016-Jul-25 13:29N 38°42' W 009°06'1 0.6
2016-Jul-25 12:33N 38°43' W 009°06'1 0.5
2016-Jul-25 11:34N 38°43' W 009°07'0 0.0
2016-Jul-25 10:27N 38°43' W 009°07'0 0.0
2016-Jul-25 09:30N 38°43' W 009°07'0 0.0
2016-Jul-25 08:33N 38°43' W 009°07'0 0.0
2016-Jul-25 07:21N 38°43' W 009°07'0 0.0
2016-Jul-25 06:30N 38°43' W 009°07'0 0.0
2016-Jul-25 04:33N 38°43' W 009°07'0 0.0
2016-Jul-25 03:33N 38°43' W 009°07'0 0.0
2016-Jul-25 02:33N 38°43' W 009°07'0 0.0
2016-Jul-25 01:33N 38°43' W 009°07'0 0.0
2016-Jul-25 00:33N 38°43' W 009°07'0 0.0
2016-Jul-24 23:33N 38°43' W 009°07'0 0.0
2016-Jul-24 22:30N 38°43' W 009°07'0 0.0
2016-Jul-24 21:33N 38°43' W 009°07'0 0.0
2016-Jul-24 20:33N 38°43' W 009°07'0 0.0
2016-Jul-24 19:33N 38°43' W 009°07'0 0.0
2016-Jul-24 18:30N 38°43' W 009°07'0 0.0
2016-Jul-24 17:33N 38°43' W 009°07'0 0.0
2016-Jul-24 16:30N 38°43' W 009°07'0 0.0
2016-Jul-24 15:33N 38°43' W 009°07'0 0.0
2016-Jul-24 14:33N 38°43' W 009°07'0 0.0
2016-Jul-24 13:33N 38°43' W 009°07'0 0.0
2016-Jul-24 12:33N 38°43' W 009°07'0 0.0
2016-Jul-24 11:27N 38°43' W 009°07'0 0.0
2016-Jul-24 10:27N 38°43' W 009°07'0 0.0
2016-Jul-24 09:33N 38°43' W 009°07'0 0.0
2016-Jul-24 08:30N 38°43' W 009°07'0 0.0
2016-Jul-24 07:33N 38°43' W 009°07'0 0.0
2016-Jul-24 06:33N 38°43' W 009°07'0 0.0
2016-Jul-24 05:33N 38°43' W 009°07'0 0.0
2016-Jul-24 04:33N 38°43' W 009°07'0 0.0
2016-Jul-24 03:33N 38°43' W 009°07'0 0.0
2016-Jul-24 02:32N 38°43' W 009°07'0 0.0
2016-Jul-24 01:32N 38°43' W 009°07'0 0.0
2016-Jul-24 00:32N 38°43' W 009°07'0 0.0
2016-Jul-23 23:29N 38°43' W 009°07'0 0.0
2016-Jul-23 22:32N 38°43' W 009°07'0 0.0
2016-Jul-23 21:32N 38°43' W 009°07'0 0.0
2016-Jul-23 20:32N 38°43' W 009°07'0 0.0
2016-Jul-23 19:32N 38°43' W 009°07'0 0.0
2016-Jul-23 18:32N 38°43' W 009°07'0 0.0
2016-Jul-23 17:32N 38°43' W 009°07'0 0.0
2016-Jul-23 16:32N 38°43' W 009°07'0 0.0
2016-Jul-23 15:32N 38°43' W 009°07'0 0.0
2016-Jul-23 14:32N 38°43' W 009°07'0 0.0
2016-Jul-23 13:29N 38°43' W 009°07'0 0.0
2016-Jul-23 12:29N 38°43' W 009°07'0 0.0
2016-Jul-23 11:32N 38°43' W 009°07'0 0.0
2016-Jul-23 10:32N 38°43' W 009°07'0 0.0
2016-Jul-23 09:29N 38°43' W 009°07'0 0.0
2016-Jul-23 08:32N 38°43' W 009°07'0 0.0
2016-Jul-23 07:32N 38°43' W 009°07'0 0.0
2016-Jul-23 06:29N 38°43' W 009°07'0 0.0
2016-Jul-23 04:32N 38°43' W 009°07'0 0.0
2016-Jul-23 03:32N 38°43' W 009°07'0 0.0
2016-Jul-23 02:32N 38°43' W 009°07'0 0.0
2016-Jul-23 01:32N 38°43' W 009°07'0 0.0
2016-Jul-23 00:32N 38°43' W 009°07'0 0.0
2016-Jul-22 23:32N 38°43' W 009°07'0 0.0
2016-Jul-22 22:32N 38°43' W 009°07'0 0.0
2016-Jul-22 21:32N 38°43' W 009°07'0 0.0
2016-Jul-22 20:23N 38°43' W 009°07'0 0.0
2016-Jul-22 19:32N 38°43' W 009°07'0 0.0
2016-Jul-22 18:28N 38°43' W 009°07'0 0.0
2016-Jul-22 17:31N 38°43' W 009°07'0 0.0
2016-Jul-22 16:31N 38°43' W 009°07'0 0.0
2016-Jul-22 15:25N 38°43' W 009°07'0 0.0
2016-Jul-22 14:31N 38°43' W 009°07'0 0.0
2016-Jul-22 13:31N 38°43' W 009°07'0 0.0
2016-Jul-22 12:28N 38°43' W 009°07'0 0.0
2016-Jul-22 11:28N 38°43' W 009°07'0 0.0
2016-Jul-22 10:31N 38°43' W 009°07'0 0.0
2016-Jul-22 09:31N 38°43' W 009°07'0 0.0
2016-Jul-22 08:25N 38°43' W 009°07'0 0.0
2016-Jul-22 07:22N 38°43' W 009°07'0 0.0
2016-Jul-22 04:31N 38°43' W 009°07'0 0.0
2016-Jul-22 02:25N 38°43' W 009°07'0 0.0
2016-Jul-22 01:25N 38°43' W 009°07'0 0.0
2016-Jul-22 00:25N 38°43' W 009°07'0 0.0
2016-Jul-21 23:31N 38°43' W 009°07'0 0.0
2016-Jul-21 22:28N 38°43' W 009°07'0 0.0
2016-Jul-21 21:31N 38°43' W 009°07'0 0.0
2016-Jul-21 20:31N 38°43' W 009°07'0 0.4
2016-Jul-21 19:33N 38°43' W 009°07'4 3.6
2016-Jul-21 18:33N 38°41' W 009°12'5 4.5
2016-Jul-21 17:33N 38°41' W 009°17'5 5.4
2016-Jul-21 16:33N 38°41' W 009°24'0 0.0
2016-Jul-21 15:32N 38°41' W 009°24'0 0.0
2016-Jul-21 14:28N 38°41' W 009°24'0 0.0
2016-Jul-21 13:31N 38°41' W 009°24'0 0.0
2016-Jul-21 11:13N 38°41' W 009°24'0 0.0
2016-Jul-21 10:31N 38°41' W 009°24'0 0.0
2016-Jul-21 09:28N 38°41' W 009°24'0 0.0
2016-Jul-21 08:31N 38°41' W 009°24'0 0.0
2016-Jul-21 07:28N 38°41' W 009°24'0 0.0
2016-Jul-21 06:31N 38°41' W 009°24'0 0.0
2016-Jul-21 05:28N 38°41' W 009°24'0 0.0
2016-Jul-21 04:28N 38°41' W 009°24'0 0.0
2016-Jul-21 03:28N 38°41' W 009°24'0 0.1
2016-Jul-21 02:28N 38°41' W 009°24'0 0.0
2016-Jul-21 01:28N 38°41' W 009°24'0 0.0
2016-Jul-21 00:28N 38°41' W 009°24'0 0.0
2016-Jul-20 23:28N 38°41' W 009°24'0 0.0
2016-Jul-20 22:28N 38°41' W 009°24'0 0.0
2016-Jul-20 21:28N 38°41' W 009°24'0 0.0
2016-Jul-20 20:22N 38°41' W 009°24'0 0.0
2016-Jul-20 19:28N 38°41' W 009°24'0 0.0
2016-Jul-20 18:31N 38°41' W 009°24'0 0.0
2016-Jul-20 17:31N 38°41' W 009°24'2 1.8
2016-Jul-20 16:34N 38°41' W 009°26'7 7.0
2016-Jul-20 15:33N 38°45' W 009°33'7 7.4
2016-Jul-20 14:33N 38°53' W 009°33'7 7.4
2016-Jul-20 13:33N 38°60' W 009°36'4 3.6
2016-Jul-20 12:33N 39°03' W 009°38'5 3.7
2016-Jul-20 11:16N 39°07' W 009°41'414.3
2016-Jul-20 11:00N 39°06' W 009°36'614.2 040 / 101020.3 5.4 0.521.018.319.3
2016-Jul-20 10:33N 39°09' W 009°43'4 3.5
2016-Jul-20 09:33N 39°12' W 009°45'5615.7
2016-Jul-20 06:00N 39°30' W 010°54'76 7.6 340 / 91017.5 5.4 19.017.518.0
2016-Jul-19 20:00N 40°36' W 010°06'85 6.1 230 / 51016.6 5.4 0.521.018.121.8
2016-Jul-19 06:00N 42°00' W 010°24'25 8.4 220 / 31015.1 5.4 0.519.116.321.0
2016-Jul-19 03:00N 42°18' W 010°00'102 4.7 1013.4 5.4 19.116.618.9
2016-Jul-18 05:00N 44°00' W 010°12'   070 / 91014.3 2.2 0.518.918.318.9

Dump ship's entire track history